createdAt,value
2022-07-28T00:01:12.590Z,15.77
2022-07-28T00:03:41.277Z,18.25
2022-07-28T00:06:09.825Z,19.73
2022-07-28T00:08:37.352Z,17.50
2022-07-28T00:11:04.854Z,18.83
2022-07-28T00:13:32.401Z,14.43
2022-07-28T00:15:59.926Z,16.48
2022-07-28T00:18:27.472Z,19.45
2022-07-28T00:20:55.019Z,16.25
2022-07-28T00:23:22.537Z,21.65
2022-07-28T00:25:50.112Z,15.75
2022-07-28T00:28:17.608Z,15.80
2022-07-28T00:30:45.187Z,16.15
2022-07-28T00:33:12.993Z,16.80
2022-07-28T00:35:40.492Z,16.42
2022-07-28T00:38:15.892Z,13.73
2022-07-28T00:41:03.120Z,16.88
2022-07-28T00:43:30.672Z,14.05
2022-07-28T00:45:58.356Z,13.93
2022-07-28T00:48:25.913Z,18.50
2022-07-28T00:50:53.611Z,13.13
2022-07-28T00:53:21.793Z,13.80
2022-07-28T00:56:06.433Z,16.73
2022-07-28T00:58:36.264Z,12.93
2022-07-28T01:01:06.174Z,11.93
2022-07-28T01:03:36.415Z,11.48
2022-07-28T01:06:13.065Z,12.80
2022-07-28T01:12:02.693Z,13.98
2022-07-28T01:14:50.416Z,11.93
2022-07-28T01:17:35.769Z,12.65
2022-07-28T01:20:15.570Z,13.38
2022-07-28T01:22:55.591Z,19.08
2022-07-28T01:25:52.204Z,16.40
2022-07-28T01:28:56.833Z,16.30
2022-07-28T01:31:31.234Z,16.58
2022-07-28T01:34:04.096Z,13.27
2022-07-28T01:36:53.647Z,17.75
2022-07-28T01:39:27.719Z,18.75
2022-07-28T01:41:58.316Z,16.35
2022-07-28T01:44:27.651Z,16.52
2022-07-28T01:46:57.857Z,17.38
2022-07-28T01:49:28.026Z,17.33
2022-07-28T01:52:06.518Z,17.60
2022-07-28T01:54:37.511Z,15.02
2022-07-28T01:57:08.784Z,19.70
2022-07-28T01:59:40.079Z,19.70
2022-07-28T02:02:10.229Z,17.55
2022-07-28T02:04:40.643Z,16.30
2022-07-28T02:07:10.172Z,15.68
2022-07-28T02:09:39.355Z,23.52
2022-07-28T02:12:09.432Z,15.45
2022-07-28T02:14:38.628Z,18.80
2022-07-28T02:17:11.167Z,27.10
2022-07-28T02:19:40.919Z,18.77
2022-07-28T02:22:10.295Z,23.38
2022-07-28T02:24:38.942Z,18.70
2022-07-28T02:27:15.724Z,19.08
2022-07-28T02:29:51.426Z,19.58
2022-07-28T02:32:28.643Z,24.52
2022-07-28T02:35:06.025Z,20.27
2022-07-28T02:37:41.190Z,23.63
2022-07-28T02:40:14.227Z,22.67
2022-07-28T02:42:45.589Z,23.48
2022-07-28T02:45:13.797Z,19.13
2022-07-28T02:47:48.867Z,22.92
2022-07-28T02:50:21.973Z,20.83
2022-07-28T02:52:51.768Z,23.58
2022-07-28T02:55:19.555Z,20.83
2022-07-28T02:57:52.041Z,23.83
2022-07-28T03:00:23.213Z,22.63
2022-07-28T03:02:51.607Z,21.77
2022-07-28T03:05:19.455Z,23.13
2022-07-28T03:07:52.783Z,24.85
2022-07-28T03:10:33.322Z,23.70
2022-07-28T03:13:09.220Z,29.58
2022-07-28T03:15:40.419Z,26.73
2022-07-28T03:18:08.031Z,18.92
2022-07-28T03:20:35.852Z,20.83
2022-07-28T03:23:04.359Z,24.13
2022-07-28T03:25:44.755Z,22.75
2022-07-28T03:28:18.009Z,25.92
2022-07-28T03:30:50.705Z,19.40
2022-07-28T03:33:19.120Z,29.35
2022-07-28T03:35:51.415Z,19.80
2022-07-28T03:38:25.936Z,18.80
2022-07-28T03:40:55.939Z,22.40
2022-07-28T03:43:27.644Z,23.27
2022-07-28T03:45:55.314Z,18.02
2022-07-28T03:48:29.488Z,19.45
2022-07-28T03:50:57.817Z,18.17
2022-07-28T03:53:27.467Z,20.65
2022-07-28T03:55:55.472Z,23.17
2022-07-28T03:58:28.480Z,19.33
2022-07-28T04:00:58.078Z,19.48
2022-07-28T04:03:36.538Z,17.73
2022-07-28T04:06:13.155Z,20.33
2022-07-28T04:08:41.328Z,19.70
2022-07-28T04:11:08.936Z,19.40
2022-07-28T04:13:37.389Z,18.88
2022-07-28T04:16:07.214Z,23.73
2022-07-28T04:18:35.318Z,18.30
2022-07-28T04:21:03.336Z,15.05
2022-07-28T04:23:31.179Z,16.20
2022-07-28T04:25:58.773Z,18.90
2022-07-28T04:28:26.752Z,21.83
2022-07-28T04:30:54.418Z,14.98
2022-07-28T04:33:22.213Z,17.15
2022-07-28T04:35:52.864Z,16.38
2022-07-28T04:38:22.119Z,18.30
2022-07-28T04:40:50.285Z,16.63
2022-07-28T04:43:18.146Z,18.02
2022-07-28T04:45:53.514Z,13.93
2022-07-28T04:48:23.473Z,15.57
2022-07-28T04:50:53.214Z,16.75
2022-07-28T04:53:22.735Z,15.43
2022-07-28T04:55:53.594Z,13.15
2022-07-28T04:58:22.650Z,13.63
2022-07-28T05:00:51.258Z,15.25
2022-07-28T05:03:19.978Z,14.65
2022-07-28T05:05:53.893Z,12.82
2022-07-28T05:08:26.555Z,15.75
2022-07-28T05:10:57.426Z,12.48
2022-07-28T05:13:28.961Z,11.55
2022-07-28T05:15:59.416Z,11.02
2022-07-28T05:18:26.989Z,11.93
2022-07-28T05:20:54.670Z,13.45
2022-07-28T05:23:22.295Z,14.00
2022-07-28T05:25:50.070Z,10.85
2022-07-28T05:28:17.745Z,13.85
2022-07-28T05:30:45.473Z,15.32
2022-07-28T05:33:15.681Z,11.05
2022-07-28T05:35:44.902Z,14.63
2022-07-28T05:38:12.663Z,11.07
2022-07-28T05:40:40.304Z,12.68
2022-07-28T05:43:07.911Z,11.80
2022-07-28T05:45:35.739Z,9.52
2022-07-28T05:48:03.310Z,11.25
2022-07-28T05:50:30.846Z,9.38
2022-07-28T05:53:00.720Z,9.43
2022-07-28T05:55:28.878Z,8.93
2022-07-28T05:57:57.774Z,10.60
2022-07-28T06:00:25.336Z,10.20
2022-07-28T06:02:53.160Z,9.15
2022-07-28T06:05:23.260Z,9.68
2022-07-28T06:07:51.717Z,12.50
2022-07-28T06:10:21.612Z,11.45
2022-07-28T06:12:53.957Z,11.02
2022-07-28T06:15:23.855Z,9.13
2022-07-28T06:17:53.355Z,10.93
2022-07-28T06:20:22.040Z,8.40
2022-07-28T06:22:52.651Z,10.05
2022-07-28T06:25:23.043Z,10.07
2022-07-28T06:27:52.302Z,8.18
2022-07-28T06:30:20.233Z,8.70
2022-07-28T06:32:48.549Z,7.82
2022-07-28T06:35:17.344Z,9.18
2022-07-28T06:37:49.314Z,7.68
2022-07-28T06:40:19.039Z,8.95
2022-07-28T06:42:47.345Z,8.25
2022-07-28T06:45:19.624Z,8.43
2022-07-28T06:47:50.500Z,8.50
2022-07-28T06:50:24.587Z,9.07
2022-07-28T06:52:59.839Z,8.65
2022-07-28T06:55:34.528Z,10.57
2022-07-28T06:58:06.240Z,7.97
2022-07-28T07:00:36.281Z,15.85
2022-07-28T07:03:09.587Z,8.77
2022-07-28T07:05:39.886Z,11.48
2022-07-28T07:08:07.492Z,9.00
2022-07-28T07:10:37.319Z,11.88
2022-07-28T07:13:04.951Z,9.27
2022-07-28T07:15:32.621Z,8.07
2022-07-28T07:18:02.757Z,9.57
2022-07-28T07:20:30.260Z,8.30
2022-07-28T07:22:57.840Z,8.70
2022-07-28T07:25:25.350Z,8.35
2022-07-28T07:27:52.909Z,16.83
2022-07-28T07:30:20.404Z,8.77
2022-07-28T07:32:48.079Z,8.25
2022-07-28T07:35:15.654Z,7.50
2022-07-28T07:37:43.181Z,8.02
2022-07-28T07:40:10.752Z,10.90
2022-07-28T07:42:44.986Z,11.98
2022-07-28T07:45:12.720Z,8.60
2022-07-28T07:47:41.020Z,10.35
2022-07-28T07:50:08.825Z,13.82
2022-07-28T07:52:36.380Z,9.50
2022-07-28T07:55:04.973Z,7.15
2022-07-28T07:57:32.444Z,11.98
2022-07-28T08:00:00.044Z,9.60
2022-07-28T08:02:27.512Z,7.60
2022-07-28T08:04:56.357Z,6.95
2022-07-28T08:07:24.363Z,6.78
2022-07-28T08:09:52.240Z,10.70
2022-07-28T08:12:25.234Z,6.15
2022-07-28T08:14:56.653Z,6.93
2022-07-28T08:17:26.235Z,7.03
2022-07-28T08:19:54.671Z,7.80
2022-07-28T08:22:22.817Z,6.82
2022-07-28T08:24:50.436Z,7.30
2022-07-28T08:27:18.732Z,7.38
2022-07-28T08:29:46.296Z,6.40
2022-07-28T08:32:14.075Z,7.03
2022-07-28T08:34:41.616Z,10.40
2022-07-28T08:37:09.144Z,9.88
2022-07-28T08:39:37.079Z,7.82
2022-07-28T08:42:10.381Z,11.60
2022-07-28T08:44:49.639Z,9.50
2022-07-28T08:47:19.350Z,11.32
2022-07-28T08:49:51.988Z,13.85
2022-07-28T08:52:21.777Z,6.57
2022-07-28T08:54:50.899Z,6.22
2022-07-28T08:57:26.789Z,7.90
2022-07-28T08:59:55.123Z,10.20
2022-07-28T09:02:27.110Z,6.97
2022-07-28T09:04:56.275Z,5.72
2022-07-28T09:07:27.140Z,7.30
2022-07-28T09:09:57.262Z,7.22
2022-07-28T09:12:28.069Z,9.90
2022-07-28T09:14:55.575Z,9.85
2022-07-28T09:17:23.086Z,10.52
2022-07-28T09:19:50.668Z,10.80
2022-07-28T09:22:18.131Z,6.05
2022-07-28T09:24:46.709Z,9.95
2022-07-28T09:27:16.204Z,9.13
2022-07-28T09:29:59.982Z,6.22
2022-07-28T09:32:27.757Z,6.30
2022-07-28T09:34:55.337Z,4.28
2022-07-28T09:37:28.430Z,5.75
2022-07-28T09:40:03.914Z,5.60
2022-07-28T09:45:23.083Z,5.65
2022-07-28T09:48:09.605Z,5.97
2022-07-28T09:53:24.459Z,5.68
2022-07-28T09:56:01.623Z,8.77
2022-07-28T09:58:32.455Z,7.50
2022-07-28T10:01:21.144Z,5.55
2022-07-28T10:03:56.108Z,12.63
2022-07-28T10:06:34.182Z,9.25
2022-07-28T10:09:03.739Z,8.35
2022-07-28T10:11:31.337Z,9.90
2022-07-28T10:14:05.579Z,6.55
2022-07-28T10:16:43.387Z,6.10
2022-07-28T10:19:10.893Z,8.02
2022-07-28T10:21:45.099Z,8.80
2022-07-28T10:24:22.177Z,8.60
2022-07-28T10:26:52.691Z,6.15
2022-07-28T10:29:22.559Z,10.77
2022-07-28T10:31:54.722Z,5.65
2022-07-28T10:34:35.643Z,4.57
2022-07-28T10:37:04.640Z,3.90
2022-07-28T10:39:41.797Z,4.70
2022-07-28T10:42:11.833Z,7.00
2022-07-28T10:44:41.705Z,5.32
2022-07-28T10:47:09.910Z,6.60
2022-07-28T10:49:48.694Z,4.97
2022-07-28T10:52:46.677Z,5.10
2022-07-28T10:55:20.713Z,5.80
2022-07-28T10:58:34.226Z,5.55
2022-07-28T11:01:05.924Z,7.28
2022-07-28T11:03:40.456Z,7.55
2022-07-28T11:06:31.601Z,7.07
2022-07-28T11:09:17.236Z,4.63
2022-07-28T11:11:46.899Z,6.10
2022-07-28T11:14:24.466Z,4.57
2022-07-28T11:17:01.086Z,5.68
2022-07-28T11:19:42.374Z,5.57
2022-07-28T11:22:22.288Z,4.95
2022-07-28T11:24:59.613Z,6.25
2022-07-28T11:27:49.968Z,7.13
2022-07-28T11:30:32.192Z,6.72
2022-07-28T11:33:01.145Z,8.30
2022-07-28T11:35:31.356Z,10.10
2022-07-28T11:38:01.947Z,6.38
2022-07-28T11:40:33.727Z,7.80
2022-07-28T11:43:33.336Z,5.85
2022-07-28T11:46:07.758Z,6.90
2022-07-28T11:48:40.562Z,9.63
2022-07-28T11:51:08.103Z,9.20
2022-07-28T11:53:52.624Z,7.78
2022-07-28T11:56:29.220Z,5.35
2022-07-28T11:59:07.930Z,4.95
2022-07-28T12:01:38.193Z,4.18
2022-07-28T12:04:15.360Z,5.97
2022-07-28T12:06:49.414Z,10.65
2022-07-28T12:09:25.317Z,5.35
2022-07-28T12:11:57.841Z,5.00
2022-07-28T12:14:33.872Z,5.88
2022-07-28T12:17:05.406Z,6.22
2022-07-28T12:19:33.434Z,5.72
2022-07-28T12:22:01.231Z,7.75
2022-07-28T12:24:45.726Z,7.75
2022-07-28T12:27:14.915Z,8.43
2022-07-28T12:29:43.188Z,6.85
2022-07-28T12:32:13.888Z,5.00
2022-07-28T12:34:42.478Z,5.43
2022-07-28T12:37:10.251Z,7.45
2022-07-28T12:39:43.465Z,7.78
2022-07-28T12:42:15.693Z,4.93
2022-07-28T12:44:45.071Z,6.18
2022-07-28T12:47:17.774Z,10.70
2022-07-28T12:49:56.296Z,6.55
2022-07-28T12:52:26.008Z,7.75
2022-07-28T12:54:55.700Z,5.05
2022-07-28T12:57:49.784Z,5.68
2022-07-28T13:00:20.559Z,6.68
2022-07-28T13:02:50.213Z,5.75
2022-07-28T13:06:04.944Z,9.40
2022-07-28T13:08:44.750Z,14.10
2022-07-28T13:11:42.384Z,5.78
2022-07-28T13:14:03.182Z,5.68
2022-07-28T13:16:30.979Z,16.10
2022-07-28T13:19:03.989Z,16.40
2022-07-28T13:21:37.933Z,15.60
2022-07-28T13:24:05.787Z,9.98
2022-07-28T13:26:33.288Z,9.18
2022-07-28T13:29:02.229Z,9.70
2022-07-28T13:31:32.285Z,5.18
2022-07-28T13:33:59.847Z,6.57
2022-07-28T13:36:27.420Z,5.80
2022-07-28T13:38:54.974Z,7.53
2022-07-28T13:41:22.775Z,8.07
2022-07-28T13:43:50.715Z,5.72
2022-07-28T13:46:19.364Z,9.45
2022-07-28T13:48:59.947Z,7.70
2022-07-28T13:51:29.083Z,5.53
2022-07-28T13:53:56.763Z,5.53
2022-07-28T13:56:24.548Z,5.30
2022-07-28T13:58:52.043Z,9.27
2022-07-28T14:01:19.705Z,4.97
2022-07-28T14:03:55.837Z,7.18
2022-07-28T14:06:25.345Z,6.13
2022-07-28T14:08:53.337Z,9.35
2022-07-28T14:11:21.877Z,4.65
2022-07-28T14:13:52.237Z,7.40
2022-07-28T14:16:21.031Z,7.60
2022-07-28T14:18:49.575Z,6.78
2022-07-28T14:21:17.733Z,14.88
2022-07-28T14:23:49.814Z,11.00
2022-07-28T14:26:34.920Z,8.65
2022-07-28T14:29:04.878Z,8.57
2022-07-28T14:31:39.407Z,5.50
2022-07-28T14:34:08.252Z,8.82
2022-07-28T14:36:35.911Z,9.50
2022-07-28T14:39:06.670Z,6.65
2022-07-28T14:41:37.119Z,10.18
2022-07-28T14:44:04.872Z,6.03
2022-07-28T14:46:32.479Z,10.32
2022-07-28T14:49:00.035Z,5.47
2022-07-28T14:51:27.572Z,8.63
2022-07-28T14:53:57.912Z,7.63
2022-07-28T14:56:25.467Z,7.40
2022-07-28T14:58:52.991Z,9.73
2022-07-28T15:01:20.576Z,6.40
2022-07-28T15:03:48.176Z,9.85
2022-07-28T15:06:15.657Z,5.43
2022-07-28T15:08:43.134Z,5.25
2022-07-28T15:11:10.667Z,6.13
2022-07-28T15:13:38.278Z,5.65
2022-07-28T15:16:06.447Z,7.90
2022-07-28T15:18:35.187Z,8.18
2022-07-28T15:21:03.042Z,6.10
2022-07-28T15:23:30.482Z,5.97
2022-07-28T15:25:58.744Z,8.52
2022-07-28T15:28:26.271Z,6.45
2022-07-28T15:30:54.562Z,6.75
2022-07-28T15:33:22.251Z,5.53
2022-07-28T15:35:56.535Z,7.15
2022-07-28T15:38:29.194Z,6.97
2022-07-28T15:41:00.139Z,6.25
2022-07-28T15:43:28.773Z,13.13
2022-07-28T15:45:57.493Z,10.30
2022-07-28T15:48:25.056Z,5.55
2022-07-28T15:50:52.893Z,7.35
2022-07-28T15:53:20.512Z,8.55
2022-07-28T15:55:51.271Z,9.35
2022-07-28T15:58:21.171Z,9.35
2022-07-28T16:00:52.030Z,9.82
2022-07-28T16:03:21.828Z,8.25
2022-07-28T16:05:50.375Z,8.77
2022-07-28T16:08:22.492Z,6.88
2022-07-28T16:10:52.979Z,6.78
2022-07-28T16:13:36.177Z,6.03
2022-07-28T16:16:07.372Z,7.47
2022-07-28T16:18:36.933Z,11.35
2022-07-28T16:21:05.516Z,10.18
2022-07-28T16:23:33.268Z,7.03
2022-07-28T16:26:01.044Z,6.53
2022-07-28T16:28:28.635Z,6.53
2022-07-28T16:30:56.130Z,7.75
2022-07-28T16:33:23.873Z,4.85
2022-07-28T16:35:52.331Z,9.40
2022-07-28T16:38:20.880Z,11.60
2022-07-28T16:40:48.431Z,8.30
2022-07-28T16:43:16.026Z,10.57
2022-07-28T16:45:43.531Z,6.18
2022-07-28T16:48:11.131Z,8.27
2022-07-28T16:50:39.011Z,8.73
2022-07-28T16:53:09.061Z,13.60
2022-07-28T16:55:36.705Z,9.98
2022-07-28T16:58:04.166Z,9.43
2022-07-28T17:00:31.846Z,8.13
2022-07-28T17:02:59.298Z,13.77
2022-07-28T17:05:26.879Z,9.82
2022-07-28T17:07:54.437Z,6.20
2022-07-28T17:10:27.194Z,4.72
2022-07-28T17:12:55.325Z,9.68
2022-07-28T17:15:23.438Z,8.60
2022-07-28T17:17:52.372Z,6.43
2022-07-28T17:20:21.175Z,6.40
2022-07-28T17:22:48.888Z,8.45
2022-07-28T17:28:05.455Z,4.30
2022-07-28T17:30:33.996Z,5.90
2022-07-28T17:33:07.865Z,9.82
2022-07-28T17:35:37.132Z,7.80
2022-07-28T17:38:07.437Z,7.65
2022-07-28T17:40:37.309Z,6.30
2022-07-28T17:43:04.771Z,7.15
2022-07-28T17:45:32.378Z,10.45
2022-07-28T17:47:59.859Z,10.80
2022-07-28T17:50:27.497Z,13.32
2022-07-28T17:52:54.969Z,10.93
2022-07-28T17:55:40.681Z,7.07
2022-07-28T17:58:34.021Z,7.25
2022-07-28T18:01:09.350Z,5.10
2022-07-28T18:03:59.424Z,4.07
2022-07-28T18:06:30.481Z,3.00
2022-07-28T18:09:05.723Z,2.35
2022-07-28T18:11:56.783Z,6.25
2022-07-28T18:14:27.656Z,4.05
2022-07-28T18:16:56.007Z,2.28
2022-07-28T18:19:23.547Z,1.95
2022-07-28T18:21:51.933Z,4.22
2022-07-28T18:24:22.254Z,5.13
2022-07-28T18:26:51.544Z,4.22
2022-07-28T18:29:21.452Z,4.95
2022-07-28T18:31:50.917Z,3.58
2022-07-28T18:34:20.817Z,2.20
2022-07-28T18:36:51.232Z,4.88
2022-07-28T18:39:18.796Z,2.75
2022-07-28T18:41:47.776Z,4.03
2022-07-28T18:44:19.501Z,12.77
2022-07-28T18:46:47.586Z,3.00
2022-07-28T18:49:15.401Z,2.28
2022-07-28T18:51:44.939Z,3.78
2022-07-28T18:54:18.606Z,4.68
2022-07-28T18:56:46.853Z,5.63
2022-07-28T18:59:16.959Z,3.33
2022-07-28T19:01:47.072Z,2.40
2022-07-28T19:04:17.719Z,2.05
2022-07-28T19:06:45.683Z,2.90
2022-07-28T19:09:13.166Z,2.55
2022-07-28T19:11:45.686Z,4.63
2022-07-28T19:14:15.512Z,6.68
2022-07-28T19:16:45.865Z,2.47
2022-07-28T19:19:16.154Z,2.08
2022-07-28T19:21:46.307Z,2.50
2022-07-28T19:24:17.474Z,1.77
2022-07-28T19:26:53.900Z,6.05
2022-07-28T19:29:23.140Z,1.40
2022-07-28T19:31:50.755Z,3.17
2022-07-28T19:34:18.795Z,3.30
2022-07-28T19:36:47.208Z,3.25
2022-07-28T19:39:14.837Z,2.40
2022-07-28T19:41:44.850Z,2.08
2022-07-28T19:44:12.618Z,4.72
2022-07-28T19:46:40.935Z,3.95
2022-07-28T19:49:09.419Z,3.40
2022-07-28T19:51:37.007Z,1.90
2022-07-28T19:54:05.361Z,3.05
2022-07-28T19:56:32.955Z,1.55
2022-07-28T19:59:01.932Z,1.05
2022-07-28T20:01:29.537Z,2.60
2022-07-28T20:04:02.983Z,1.50
2022-07-28T20:06:33.044Z,3.78
2022-07-28T20:09:01.706Z,3.35
2022-07-28T20:11:29.459Z,1.52
2022-07-28T20:13:57.260Z,3.25
2022-07-28T20:16:25.228Z,4.88
2022-07-28T20:18:52.974Z,3.22
2022-07-28T20:21:21.452Z,1.73
2022-07-28T20:23:49.267Z,2.40
2022-07-28T20:26:23.940Z,2.03
2022-07-28T20:28:52.363Z,3.28
2022-07-28T20:31:20.572Z,6.45
2022-07-28T20:33:51.241Z,3.60
2022-07-28T20:36:18.758Z,1.60
2022-07-28T20:38:46.459Z,2.20
2022-07-28T20:41:16.939Z,1.65
2022-07-28T20:43:44.508Z,3.88
2022-07-28T20:46:12.002Z,3.92
2022-07-28T20:48:39.592Z,2.17
2022-07-28T20:51:09.250Z,1.52
2022-07-28T20:53:37.896Z,4.15
2022-07-28T20:56:05.471Z,4.63
2022-07-28T20:58:33.277Z,1.25
2022-07-28T21:01:02.160Z,1.60
2022-07-28T21:03:29.861Z,3.72
2022-07-28T21:06:05.247Z,5.03
2022-07-28T21:08:35.662Z,4.43
2022-07-28T21:11:07.828Z,4.43
2022-07-28T21:13:35.349Z,4.15
2022-07-28T21:16:02.912Z,2.42
2022-07-28T21:18:32.881Z,3.92
2022-07-28T21:21:00.701Z,1.85
2022-07-28T21:23:28.324Z,4.65
2022-07-28T21:25:55.878Z,3.00
2022-07-28T21:28:41.741Z,1.98
2022-07-28T21:31:12.267Z,6.30
2022-07-28T21:33:39.965Z,4.53
2022-07-28T21:36:08.160Z,1.77
2022-07-28T21:38:36.102Z,2.72
2022-07-28T21:41:03.947Z,3.33
2022-07-28T21:43:31.677Z,3.15
2022-07-28T21:45:59.204Z,2.72
2022-07-28T21:48:27.145Z,2.17
2022-07-28T21:50:54.760Z,1.13
2022-07-28T21:53:22.383Z,1.40
2022-07-28T21:55:52.800Z,2.30
2022-07-28T21:58:20.423Z,3.25
2022-07-28T22:00:48.027Z,0.80
2022-07-28T22:03:15.585Z,1.50
2022-07-28T22:05:43.151Z,3.33
2022-07-28T22:08:10.955Z,1.48
2022-07-28T22:10:38.511Z,2.88
2022-07-28T22:13:06.039Z,3.33
2022-07-28T22:15:33.681Z,2.55
2022-07-28T22:18:01.315Z,1.55
2022-07-28T22:20:28.881Z,3.20
2022-07-28T22:22:56.449Z,4.40
2022-07-28T22:25:23.979Z,1.63
2022-07-28T22:27:51.529Z,3.15
2022-07-28T22:30:19.280Z,1.83
2022-07-28T22:32:46.878Z,8.23
2022-07-28T22:35:16.531Z,3.78
2022-07-28T22:37:46.223Z,4.70
2022-07-28T22:40:17.384Z,4.45
2022-07-28T22:42:48.835Z,1.20
2022-07-28T22:45:16.624Z,1.27
2022-07-28T22:48:04.530Z,2.28
2022-07-28T22:50:32.361Z,3.70
2022-07-28T22:53:00.089Z,1.75
2022-07-28T22:55:28.294Z,4.28
2022-07-28T22:57:56.449Z,0.93
2022-07-28T23:00:24.653Z,1.00
2022-07-28T23:02:52.890Z,1.77
2022-07-28T23:05:24.116Z,1.67
2022-07-28T23:07:57.016Z,2.22
2022-07-28T23:10:25.837Z,1.65
2022-07-28T23:12:56.137Z,1.10
2022-07-28T23:15:39.526Z,1.30
2022-07-28T23:18:12.599Z,3.28
2022-07-28T23:20:41.923Z,4.85
2022-07-28T23:23:10.823Z,2.55
2022-07-28T23:25:41.576Z,1.67
2022-07-28T23:28:09.757Z,2.08
2022-07-28T23:30:38.667Z,1.25
2022-07-28T23:33:06.892Z,5.28
2022-07-28T23:35:36.530Z,1.95
2022-07-28T23:38:04.721Z,5.85
2022-07-28T23:40:32.910Z,2.53
2022-07-28T23:43:01.459Z,1.00
2022-07-28T23:45:29.575Z,6.45
2022-07-28T23:47:59.017Z,1.05
2022-07-28T23:50:28.022Z,2.58
2022-07-28T23:52:56.163Z,4.30
2022-07-28T23:55:27.862Z,2.35
2022-07-28T23:57:55.929Z,3.95
